Terminal Aerodrome Forecast
Issued by NWS

Home | Current Version | Previous Version | Text Only | Print | Product List | Glossary On
Versions: 1 2 3 4 5 6 7 8 9 10 11 12 13
000
FTUS46 KLOX 300520
TAFPRB
TAF
KPRB 300520Z 3006/0106 30010KT P6SM SCT150
     FM300800 VRB03KT P6SM SKC
     FM302200 20010KT P6SM SKC
     FM010300 30010KT P6SM SKC=

USA.gov is the U.S. government's official web portal to all federal, state and local government web resources and services.